Naponee, Nebraska
Current Conditions -  °F | °C
As of 6:35 PM on Friday 24 Oct 2014 (Local Time) from KHDE Reporting Station
Clear Clear  
Wind Chill: 77°   Ceiling: Unl
Heat Index: 77°   Visibility: 10mi
Dew Point: 32°   Wind: 0mph
Humidity: 19%   Direction: NA
Pressure: 29.97"   Gusts: NA
Location:  40.08°N, 99.14°W
Report Text: KHDE 242335Z AUTO 00000KT 10SM CLR 25/00 A2997 RMK AO2 T02490000
Loading
Personal Weather Stations






























Interactive Weather Map
Tropical Storm Tracking
New forecast layout! Learn more

10-Day Weather Forecast

Advertisements
Track Severe Weather on mobile